sensor_id;sensor_type;location;lat;lon;timestamp;pressure;altitude;pressure_sealevel;temperature;humidity
41947;BME280;27638;42.184;24.848;2023-01-29T00:01:46;100002.09;;;5.04;82.04
41947;BME280;27638;42.184;24.848;2023-01-29T00:04:12;99997.09;;;5.12;81.89
41947;BME280;27638;42.184;24.848;2023-01-29T00:06:37;100004.25;;;5.21;81.66
41947;BME280;27638;42.184;24.848;2023-01-29T00:09:03;100000.06;;;5.30;80.84
41947;BME280;27638;42.184;24.848;2023-01-29T00:11:29;100001.38;;;5.35;80.81
41947;BME280;27638;42.184;24.848;2023-01-29T00:13:56;100012.34;;;5.40;80.75
41947;BME280;27638;42.184;24.848;2023-01-29T00:16:21;100011.97;;;5.45;80.50
41947;BME280;27638;42.184;24.848;2023-01-29T00:18:47;100019.38;;;5.40;81.09
41947;BME280;27638;42.184;24.848;2023-01-29T00:21:15;100014.00;;;5.53;81.12
41947;BME280;27638;42.184;24.848;2023-01-29T00:23:41;100020.19;;;5.52;79.74
41947;BME280;27638;42.184;24.848;2023-01-29T00:26:06;100026.16;;;5.54;80.20
41947;BME280;27638;42.184;24.848;2023-01-29T00:28:32;100026.38;;;5.62;80.01
41947;BME280;27638;42.184;24.848;2023-01-29T00:30:58;100020.66;;;5.57;79.15
41947;BME280;27638;42.184;24.848;2023-01-29T00:33:23;100028.41;;;5.58;79.72
41947;BME280;27638;42.184;24.848;2023-01-29T00:35:48;100033.69;;;5.58;79.81
41947;BME280;27638;42.184;24.848;2023-01-29T00:38:14;100036.56;;;5.55;79.52
41947;BME280;27638;42.184;24.848;2023-01-29T00:40:40;100029.00;;;5.62;79.32
41947;BME280;27638;42.184;24.848;2023-01-29T00:43:24;100041.31;;;5.61;79.06
41947;BME280;27638;42.184;24.848;2023-01-29T00:46:09;100038.19;;;5.67;79.06
41947;BME280;27638;42.184;24.848;2023-01-29T00:48:34;100039.03;;;5.68;78.46
41947;BME280;27638;42.184;24.848;2023-01-29T00:51:01;100045.34;;;5.76;78.84
41947;BME280;27638;42.184;24.848;2023-01-29T00:53:28;100042.69;;;5.76;78.48
41947;BME280;27638;42.184;24.848;2023-01-29T00:55:53;100041.88;;;5.76;78.21
41947;BME280;27638;42.184;24.848;2023-01-29T00:58:19;100042.47;;;5.68;78.61
41947;BME280;27638;42.184;24.848;2023-01-29T01:00:49;100034.34;;;5.71;78.60
41947;BME280;27638;42.184;24.848;2023-01-29T01:03:15;100034.50;;;5.59;78.76
41947;BME280;27638;42.184;24.848;2023-01-29T01:05:41;100038.59;;;5.52;78.42
41947;BME280;27638;42.184;24.848;2023-01-29T01:08:08;100032.97;;;5.56;78.72
41947;BME280;27638;42.184;24.848;2023-01-29T01:11:06;100038.59;;;5.52;78.59
41947;BME280;27638;42.184;24.848;2023-01-29T01:13:33;100037.16;;;5.48;78.74
41947;BME280;27638;42.184;24.848;2023-01-29T01:15:59;100044.56;;;5.42;78.86
41947;BME280;27638;42.184;24.848;2023-01-29T01:18:27;100047.19;;;5.42;79.95
41947;BME280;27638;42.184;24.848;2023-01-29T01:20:56;100044.94;;;5.27;79.84
41947;BME280;27638;42.184;24.848;2023-01-29T01:23:22;100046.47;;;5.18;80.21
41947;BME280;27638;42.184;24.848;2023-01-29T01:25:47;100045.66;;;5.18;80.60
41947;BME280;27638;42.184;24.848;2023-01-29T01:28:13;100046.97;;;5.23;80.78
41947;BME280;27638;42.184;24.848;2023-01-29T01:30:38;100046.75;;;5.26;80.57
41947;BME280;27638;42.184;24.848;2023-01-29T01:33:04;100048.66;;;5.24;80.90
41947;BME280;27638;42.184;24.848;2023-01-29T01:35:29;100049.50;;;5.25;80.51
41947;BME280;27638;42.184;24.848;2023-01-29T01:37:55;100054.72;;;5.13;81.79
41947;BME280;27638;42.184;24.848;2023-01-29T01:40:22;100048.63;;;5.13;81.41
41947;BME280;27638;42.184;24.848;2023-01-29T01:42:49;100049.22;;;5.17;82.12
41947;BME280;27638;42.184;24.848;2023-01-29T01:45:28;100044.94;;;5.16;81.69
41947;BME280;27638;42.184;24.848;2023-01-29T01:50:41;100038.72;;;5.05;81.90
41947;BME280;27638;42.184;24.848;2023-01-29T01:53:10;100044.81;;;5.06;82.02
41947;BME280;27638;42.184;24.848;2023-01-29T01:55:41;100043.25;;;5.03;82.27
41947;BME280;27638;42.184;24.848;2023-01-29T01:58:11;100048.16;;;5.08;82.26
41947;BME280;27638;42.184;24.848;2023-01-29T02:00:38;100051.97;;;5.04;82.29
41947;BME280;27638;42.184;24.848;2023-01-29T02:03:06;100054.22;;;5.08;82.40
41947;BME280;27638;42.184;24.848;2023-01-29T02:05:52;100059.38;;;5.10;82.17
41947;BME280;27638;42.184;24.848;2023-01-29T02:08:46;100056.63;;;5.11;82.46
41947;BME280;27638;42.184;24.848;2023-01-29T02:11:32;100057.22;;;5.15;82.45
41947;BME280;27638;42.184;24.848;2023-01-29T02:13:58;100056.38;;;5.14;82.10
41947;BME280;27638;42.184;24.848;2023-01-29T02:16:24;100060.56;;;5.17;82.78
41947;BME280;27638;42.184;24.848;2023-01-29T02:18:49;100060.56;;;5.17;82.26
41947;BME280;27638;42.184;24.848;2023-01-29T02:27:13;100069.66;;;5.24;82.47
41947;BME280;27638;42.184;24.848;2023-01-29T02:37:53;100068.56;;;5.16;82.53
41947;BME280;27638;42.184;24.848;2023-01-29T02:43:20;100071.19;;;5.04;83.12
41947;BME280;27638;42.184;24.848;2023-01-29T02:49:26;100077.03;;;4.97;83.85
41947;BME280;27638;42.184;24.848;2023-01-29T02:51:33;100075.69;;;4.91;84.12
41947;BME280;27638;42.184;24.848;2023-01-29T02:54:15;100075.34;;;4.96;84.22
41947;BME280;27638;42.184;24.848;2023-01-29T02:56:59;100076.66;;;5.01;84.36
41947;BME280;27638;42.184;24.848;2023-01-29T02:59:39;100078.22;;;5.04;84.02
41947;BME280;27638;42.184;24.848;2023-01-29T03:02:11;100082.38;;;5.06;84.36
41947;BME280;27638;42.184;24.848;2023-01-29T03:04:45;100082.28;;;5.08;84.60
41947;BME280;27638;42.184;24.848;2023-01-29T03:07:17;100083.81;;;4.99;84.35
41947;BME280;27638;42.184;24.848;2023-01-29T03:10:16;100087.88;;;5.03;85.17
41947;BME280;27638;42.184;24.848;2023-01-29T03:12:46;100089.09;;;5.22;84.86
41947;BME280;27638;42.184;24.848;2023-01-29T03:15:19;100085.66;;;5.32;83.91
41947;BME280;27638;42.184;24.848;2023-01-29T03:18:07;100099.84;;;5.30;83.97
41947;BME280;27638;42.184;24.848;2023-01-29T03:20:40;100090.91;;;5.21;83.56
41947;BME280;27638;42.184;24.848;2023-01-29T03:23:20;100099.13;;;5.28;84.27
41947;BME280;27638;42.184;24.848;2023-01-29T03:25:53;100102.47;;;5.30;83.36
41947;BME280;27638;42.184;24.848;2023-01-29T03:28:42;100107.84;;;5.28;83.79
41947;BME280;27638;42.184;24.848;2023-01-29T03:31:28;100110.72;;;5.25;83.79
41947;BME280;27638;42.184;24.848;2023-01-29T03:34:20;100112.97;;;5.30;83.37
41947;BME280;27638;42.184;24.848;2023-01-29T03:37:05;100113.44;;;5.35;83.56
41947;BME280;27638;42.184;24.848;2023-01-29T03:39:33;100110.09;;;5.44;83.21
41947;BME280;27638;42.184;24.848;2023-01-29T03:47:57;100105.53;;;5.68;82.44
41947;BME280;27638;42.184;24.848;2023-01-29T03:53:16;100112.56;;;5.79;82.10
41947;BME280;27638;42.184;24.848;2023-01-29T03:58:33;100117.44;;;5.84;81.55
41947;BME280;27638;42.184;24.848;2023-01-29T04:01:19;100112.56;;;5.79;81.85
41947;BME280;27638;42.184;24.848;2023-01-29T04:03:55;100127.03;;;5.73;81.66
41947;BME280;27638;42.184;24.848;2023-01-29T04:06:25;100123.34;;;5.65;82.45
41947;BME280;27638;42.184;24.848;2023-01-29T04:09:18;100123.81;;;5.59;82.78
41947;BME280;27638;42.184;24.848;2023-01-29T04:11:49;100127.88;;;5.63;82.89
41947;BME280;27638;42.184;24.848;2023-01-29T04:14:17;100127.41;;;5.47;82.81
41947;BME280;27638;42.184;24.848;2023-01-29T04:16:51;100136.59;;;5.41;83.15
41947;BME280;27638;42.184;24.848;2023-01-29T04:19:17;100142.47;;;5.44;83.85
41947;BME280;27638;42.184;24.848;2023-01-29T04:21:44;100146.16;;;5.42;84.38
41947;BME280;27638;42.184;24.848;2023-01-29T04:24:11;100144.84;;;5.36;84.62
41947;BME280;27638;42.184;24.848;2023-01-29T04:27:04;100147.22;;;5.28;85.73
41947;BME280;27638;42.184;24.848;2023-01-29T04:32:10;100145.16;;;5.09;88.74
41947;BME280;27638;42.184;24.848;2023-01-29T04:35:03;100155.88;;;5.06;89.66
41947;BME280;27638;42.184;24.848;2023-01-29T04:37:40;100157.31;;;4.99;90.94
41947;BME280;27638;42.184;24.848;2023-01-29T04:40:33;100155.69;;;4.74;93.23
41947;BME280;27638;42.184;24.848;2023-01-29T04:43:07;100158.44;;;4.73;94.56
41947;BME280;27638;42.184;24.848;2023-01-29T04:51:26;100165.81;;;4.68;96.83
41947;BME280;27638;42.184;24.848;2023-01-29T04:54:00;100166.09;;;4.52;97.88
41947;BME280;27638;42.184;24.848;2023-01-29T04:56:55;100163.06;;;4.69;97.86
41947;BME280;27638;42.184;24.848;2023-01-29T04:59:28;100165.47;;;4.72;97.54
41947;BME280;27638;42.184;24.848;2023-01-29T05:01:56;100166.78;;;4.78;98.12
41947;BME280;27638;42.184;24.848;2023-01-29T05:04:24;100160.38;;;4.82;97.91
41947;BME280;27638;42.184;24.848;2023-01-29T05:06:51;100169.41;;;4.78;97.75
41947;BME280;27638;42.184;24.848;2023-01-29T05:09:18;100167.13;;;4.73;97.85
41947;BME280;27638;42.184;24.848;2023-01-29T05:11:45;100171.09;;;4.79;98.44
41947;BME280;27638;42.184;24.848;2023-01-29T05:14:13;100179.59;;;4.94;97.68
41947;BME280;27638;42.184;24.848;2023-01-29T05:16:44;100179.13;;;5.00;97.34
41947;BME280;27638;42.184;24.848;2023-01-29T05:19:12;100179.38;;;4.97;96.94
41947;BME280;27638;42.184;24.848;2023-01-29T05:21:40;100180.78;;;4.90;96.61
41947;BME280;27638;42.184;24.848;2023-01-29T05:24:18;100186.03;;;4.90;97.09
41947;BME280;27638;42.184;24.848;2023-01-29T05:26:47;100184.47;;;4.87;96.93
41947;BME280;27638;42.184;24.848;2023-01-29T05:29:31;100189.97;;;4.95;97.23
41947;BME280;27638;42.184;24.848;2023-01-29T05:31:57;100194.41;;;5.06;96.76
41947;BME280;27638;42.184;24.848;2023-01-29T05:34:22;100194.91;;;5.11;96.79
41947;BME280;27638;42.184;24.848;2023-01-29T05:36:48;100202.53;;;5.14;96.07
41947;BME280;27638;42.184;24.848;2023-01-29T05:39:14;100198.13;;;5.14;96.12
41947;BME280;27638;42.184;24.848;2023-01-29T05:41:40;100205.06;;;5.16;96.24
41947;BME280;27638;42.184;24.848;2023-01-29T05:44:05;100205.41;;;5.11;95.47
41947;BME280;27638;42.184;24.848;2023-01-29T05:46:31;100210.44;;;5.14;95.84
41947;BME280;27638;42.184;24.848;2023-01-29T05:48:56;100208.19;;;5.21;96.33
41947;BME280;27638;42.184;24.848;2023-01-29T05:51:22;100215.25;;;5.20;95.30
41947;BME280;27638;42.184;24.848;2023-01-29T05:53:47;100218.25;;;5.27;95.39
41947;BME280;27638;42.184;24.848;2023-01-29T05:56:13;100215.50;;;5.39;94.68
41947;BME280;27638;42.184;24.848;2023-01-29T05:58:38;100219.69;;;5.53;94.29
41947;BME280;27638;42.184;24.848;2023-01-29T06:01:12;100224.72;;;5.56;93.54
41947;BME280;27638;42.184;24.848;2023-01-29T06:03:38;100216.84;;;5.56;93.18
41947;BME280;27638;42.184;24.848;2023-01-29T06:06:04;100222.09;;;5.56;93.51
41947;BME280;27638;42.184;24.848;2023-01-29T06:08:29;100231.41;;;5.49;93.29
41947;BME280;27638;42.184;24.848;2023-01-29T06:10:54;100230.44;;;5.50;92.94
41947;BME280;27638;42.184;24.848;2023-01-29T06:13:20;100224.59;;;5.47;92.85
41947;BME280;27638;42.184;24.848;2023-01-29T06:15:45;100231.28;;;5.51;93.21
41947;BME280;27638;42.184;24.848;2023-01-29T06:18:11;100239.97;;;5.40;93.22
41947;BME280;27638;42.184;24.848;2023-01-29T06:20:36;100240.22;;;5.37;93.71
41947;BME280;27638;42.184;24.848;2023-01-29T06:23:02;100247.84;;;5.29;93.34
41947;BME280;27638;42.184;24.848;2023-01-29T06:25:27;100245.34;;;5.27;93.42
41947;BME280;27638;42.184;24.848;2023-01-29T06:27:53;100243.88;;;5.23;94.43
41947;BME280;27638;42.184;24.848;2023-01-29T06:30:18;100250.22;;;5.21;94.14
41947;BME280;27638;42.184;24.848;2023-01-29T06:32:44;100256.91;;;5.25;93.95
41947;BME280;27638;42.184;24.848;2023-01-29T06:35:09;100252.00;;;5.20;94.70
41947;BME280;27638;42.184;24.848;2023-01-29T06:37:35;100259.28;;;5.28;94.63
41947;BME280;27638;42.184;24.848;2023-01-29T06:40:01;100261.22;;;5.37;94.22
41947;BME280;27638;42.184;24.848;2023-01-29T06:42:27;100270.78;;;5.38;94.24
41947;BME280;27638;42.184;24.848;2023-01-29T06:44:56;100271.00;;;5.35;94.86
41947;BME280;27638;42.184;24.848;2023-01-29T06:47:22;100271.72;;;5.37;94.86
41947;BME280;27638;42.184;24.848;2023-01-29T06:49:48;100263.97;;;5.35;94.36
41947;BME280;27638;42.184;24.848;2023-01-29T06:52:14;100266.00;;;5.43;93.98
41947;BME280;27638;42.184;24.848;2023-01-29T06:54:39;100276.41;;;5.44;94.09
41947;BME280;27638;42.184;24.848;2023-01-29T06:57:05;100271.66;;;5.61;94.26
41947;BME280;27638;42.184;24.848;2023-01-29T06:59:30;100276.78;;;5.62;93.56
41947;BME280;27638;42.184;24.848;2023-01-29T07:01:56;100278.00;;;5.69;92.56
41947;BME280;27638;42.184;24.848;2023-01-29T07:04:21;100275.97;;;5.84;92.74
41947;BME280;27638;42.184;24.848;2023-01-29T07:06:47;100282.94;;;5.96;92.51
41947;BME280;27638;42.184;24.848;2023-01-29T07:09:12;100280.53;;;6.04;91.74
41947;BME280;27638;42.184;24.848;2023-01-29T07:11:38;100292.50;;;5.97;91.15
41947;BME280;27638;42.184;24.848;2023-01-29T07:14:04;100286.63;;;5.94;91.15
41947;BME280;27638;42.184;24.848;2023-01-29T07:16:30;100293.81;;;5.92;90.34
41947;BME280;27638;42.184;24.848;2023-01-29T07:18:55;100302.97;;;5.86;89.77
41947;BME280;27638;42.184;24.848;2023-01-29T07:21:21;100292.81;;;5.82;90.38
41947;BME280;27638;42.184;24.848;2023-01-29T07:23:46;100295.91;;;5.75;90.96
41947;BME280;27638;42.184;24.848;2023-01-29T07:26:11;100293.16;;;5.77;90.96
41947;BME280;27638;42.184;24.848;2023-01-29T07:28:37;100306.06;;;5.69;91.02
41947;BME280;27638;42.184;24.848;2023-01-29T07:31:04;100295.91;;;5.75;89.94
41947;BME280;27638;42.184;24.848;2023-01-29T07:33:29;100305.13;;;5.81;90.46
41947;BME280;27638;42.184;24.848;2023-01-29T07:35:55;100308.84;;;5.90;89.43
41947;BME280;27638;42.184;24.848;2023-01-29T07:38:20;100293.16;;;5.88;89.05
41947;BME280;27638;42.184;24.848;2023-01-29T07:40:46;100300.81;;;5.80;88.92
41947;BME280;27638;42.184;24.848;2023-01-29T07:43:12;100295.56;;;5.80;89.21
41947;BME280;27638;42.184;24.848;2023-01-29T07:45:38;100294.38;;;5.84;88.81
41947;BME280;27638;42.184;24.848;2023-01-29T07:48:06;100299.63;;;5.84;88.54
41947;BME280;27638;42.184;24.848;2023-01-29T07:50:33;100305.59;;;5.86;88.55
41947;BME280;27638;42.184;24.848;2023-01-29T07:52:59;100304.09;;;6.06;89.13
41947;BME280;27638;42.184;24.848;2023-01-29T07:55:25;100303.00;;;6.20;88.80
41947;BME280;27638;42.184;24.848;2023-01-29T07:57:58;100304.69;;;6.32;89.32
41947;BME280;27638;42.184;24.848;2023-01-29T08:00:24;100305.66;;;6.31;87.29
41947;BME280;27638;42.184;24.848;2023-01-29T08:02:50;100303.72;;;6.22;87.23
41947;BME280;27638;42.184;24.848;2023-01-29T08:05:15;100311.13;;;6.05;88.03
41947;BME280;27638;42.184;24.848;2023-01-29T08:07:41;100315.31;;;6.08;87.28
41947;BME280;27638;42.184;24.848;2023-01-29T08:10:07;100313.28;;;5.89;87.04
41947;BME280;27638;42.184;24.848;2023-01-29T08:12:32;100311.13;;;6.05;87.47
41947;BME280;27638;42.184;24.848;2023-01-29T08:14:58;100313.75;;;6.17;88.15
41947;BME280;27638;42.184;24.848;2023-01-29T08:17:23;100305.31;;;6.24;88.27
41947;BME280;27638;42.184;24.848;2023-01-29T08:19:49;100313.16;;;6.13;88.38
41947;BME280;27638;42.184;24.848;2023-01-29T08:22:14;100314.72;;;6.04;89.05
41947;BME280;27638;42.184;24.848;2023-01-29T08:24:41;100312.56;;;5.98;89.01
41947;BME280;27638;42.184;24.848;2023-01-29T08:27:06;100314.34;;;6.09;90.69
41947;BME280;27638;42.184;24.848;2023-01-29T08:29:31;100314.00;;;6.02;88.50
41947;BME280;27638;42.184;24.848;2023-01-29T08:31:57;100311.97;;;6.06;89.46
41947;BME280;27638;42.184;24.848;2023-01-29T08:34:22;100320.56;;;6.08;90.62
41947;BME280;27638;42.184;24.848;2023-01-29T08:36:48;100317.38;;;6.27;91.00
41947;BME280;27638;42.184;24.848;2023-01-29T08:39:13;100328.84;;;6.48;90.44
41947;BME280;27638;42.184;24.848;2023-01-29T08:41:39;100320.47;;;6.43;88.93
41947;BME280;27638;42.184;24.848;2023-01-29T08:44:04;100330.72;;;6.57;89.06
41947;BME280;27638;42.184;24.848;2023-01-29T08:46:30;100336.00;;;6.57;89.40
41947;BME280;27638;42.184;24.848;2023-01-29T08:48:56;100333.38;;;6.46;89.73
41947;BME280;27638;42.184;24.848;2023-01-29T08:51:23;100329.53;;;6.50;90.29
41947;BME280;27638;42.184;24.848;2023-01-29T08:53:49;100335.88;;;6.59;89.88
41947;BME280;27638;42.184;24.848;2023-01-29T08:56:14;100333.25;;;6.59;90.00
41947;BME280;27638;42.184;24.848;2023-01-29T08:58:41;100339.22;;;6.50;89.02
41947;BME280;27638;42.184;24.848;2023-01-29T09:01:08;100334.22;;;6.35;88.85
41947;BME280;27638;42.184;24.848;2023-01-29T09:03:34;100330.66;;;6.25;89.63
41947;BME280;27638;42.184;24.848;2023-01-29T09:06:00;100337.53;;;6.15;90.65
41947;BME280;27638;42.184;24.848;2023-01-29T09:08:25;100338.84;;;6.09;91.50
41947;BME280;27638;42.184;24.848;2023-01-29T09:10:51;100337.31;;;6.07;91.41
41947;BME280;27638;42.184;24.848;2023-01-29T09:13:16;100335.41;;;6.09;91.83
41947;BME280;27638;42.184;24.848;2023-01-29T09:15:41;100338.03;;;6.09;90.59
41947;BME280;27638;42.184;24.848;2023-01-29T09:18:07;100332.53;;;6.12;90.90
41947;BME280;27638;42.184;24.848;2023-01-29T09:20:32;100334.72;;;6.29;91.02
41947;BME280;27638;42.184;24.848;2023-01-29T09:23:07;100329.66;;;6.49;91.10
41947;BME280;27638;42.184;24.848;2023-01-29T09:25:34;100326.91;;;6.61;91.16
41947;BME280;27638;42.184;24.848;2023-01-29T09:27:59;100327.59;;;6.75;89.95
41947;BME280;27638;42.184;24.848;2023-01-29T09:30:25;100324.69;;;6.89;89.55
41947;BME280;27638;42.184;24.848;2023-01-29T09:32:50;100321.78;;;6.92;88.58
41947;BME280;27638;42.184;24.848;2023-01-29T09:35:16;100324.56;;;6.90;88.00
41947;BME280;27638;42.184;24.848;2023-01-29T09:37:41;100322.75;;;6.91;89.17
41947;BME280;27638;42.184;24.848;2023-01-29T09:40:27;100318.06;;;6.94;88.12
41947;BME280;27638;42.184;24.848;2023-01-29T09:45:27;100318.91;;;6.95;88.16
41947;BME280;27638;42.184;24.848;2023-01-29T09:47:57;100316.50;;;7.03;87.56
41947;BME280;27638;42.184;24.848;2023-01-29T09:50:37;100311.34;;;7.01;87.71
41947;BME280;27638;42.184;24.848;2023-01-29T09:53:15;100313.06;;;6.91;86.98
41947;BME280;27638;42.184;24.848;2023-01-29T09:56:03;100303.19;;;7.04;88.04
41947;BME280;27638;42.184;24.848;2023-01-29T09:58:37;100308.97;;;6.98;86.96
41947;BME280;27638;42.184;24.848;2023-01-29T10:01:26;100298.69;;;6.95;85.63
41947;BME280;27638;42.184;24.848;2023-01-29T10:06:53;100308.22;;;7.08;85.56
41947;BME280;27638;42.184;24.848;2023-01-29T10:12:26;100298.44;;;7.30;85.97
41947;BME280;27638;42.184;24.848;2023-01-29T10:15:12;100297.94;;;7.36;85.05
41947;BME280;27638;42.184;24.848;2023-01-29T10:25:24;100274.94;;;7.39;83.19
41947;BME280;27638;42.184;24.848;2023-01-29T10:27:52;100279.94;;;7.42;82.95
41947;BME280;27638;42.184;24.848;2023-01-29T10:33:02;100267.91;;;7.49;83.21
41947;BME280;27638;42.184;24.848;2023-01-29T10:37:55;100268.50;;;7.52;83.78
41947;BME280;27638;42.184;24.848;2023-01-29T10:51:29;100248.28;;;7.62;83.36
41947;BME280;27638;42.184;24.848;2023-01-29T10:56:39;100249.88;;;7.44;83.46
41947;BME280;27638;42.184;24.848;2023-01-29T11:01:57;100247.16;;;7.55;82.77
41947;BME280;27638;42.184;24.848;2023-01-29T11:04:25;100242.41;;;7.49;82.54
41947;BME280;27638;42.184;24.848;2023-01-29T11:06:51;100235.59;;;7.47;82.49
41947;BME280;27638;42.184;24.848;2023-01-29T11:09:27;100241.31;;;7.52;82.19
41947;BME280;27638;42.184;24.848;2023-01-29T11:12:08;100243.28;;;7.59;82.62
41947;BME280;27638;42.184;24.848;2023-01-29T11:17:14;100235.13;;;7.62;82.15
41947;BME280;27638;42.184;24.848;2023-01-29T11:19:43;100233.75;;;7.68;81.84
41947;BME280;27638;42.184;24.848;2023-01-29T11:22:14;100234.72;;;7.67;80.69
41947;BME280;27638;42.184;24.848;2023-01-29T11:24:40;100217.91;;;7.58;80.86
41947;BME280;27638;42.184;24.848;2023-01-29T11:27:26;100226.56;;;7.70;81.30
41947;BME280;27638;42.184;24.848;2023-01-29T11:29:54;100220.75;;;7.76;80.65
41947;BME280;27638;42.184;24.848;2023-01-29T11:34:59;100216.91;;;7.90;80.03
41947;BME280;27638;42.184;24.848;2023-01-29T11:37:39;100203.03;;;7.88;79.50
41947;BME280;27638;42.184;24.848;2023-01-29T11:42:43;100207.66;;;8.05;80.00
41947;BME280;27638;42.184;24.848;2023-01-29T11:45:27;100209.91;;;8.10;78.84
41947;BME280;27638;42.184;24.848;2023-01-29T11:47:59;100207.69;;;8.15;78.38
41947;BME280;27638;42.184;24.848;2023-01-29T11:50:30;100211.31;;;8.23;78.87
41947;BME280;27638;42.184;24.848;2023-01-29T11:53:00;100203.00;;;8.28;77.72
41947;BME280;27638;42.184;24.848;2023-01-29T11:55:29;100200.91;;;8.22;76.26
41947;BME280;27638;42.184;24.848;2023-01-29T11:57:58;100199.50;;;8.18;77.20
41947;BME280;27638;42.184;24.848;2023-01-29T12:00:28;100198.13;;;8.14;76.97
41947;BME280;27638;42.184;24.848;2023-01-29T12:03:04;100190.75;;;8.08;76.90
41947;BME280;27638;42.184;24.848;2023-01-29T12:05:31;100190.47;;;8.11;77.18
41947;BME280;27638;42.184;24.848;2023-01-29T12:07:58;100188.53;;;8.13;75.91
41947;BME280;27638;42.184;24.848;2023-01-29T12:10:36;100195.34;;;8.15;76.44
41947;BME280;27638;42.184;24.848;2023-01-29T12:13:20;100193.94;;;8.11;76.78
41947;BME280;27638;42.184;24.848;2023-01-29T12:18:45;100176.97;;;8.35;75.45
41947;BME280;27638;42.184;24.848;2023-01-29T12:24:35;100168.31;;;8.32;75.23
41947;BME280;27638;42.184;24.848;2023-01-29T12:26:48;100172.13;;;8.40;75.01
41947;BME280;27638;42.184;24.848;2023-01-29T12:32:08;100171.34;;;8.28;74.78
41947;BME280;27638;42.184;24.848;2023-01-29T12:40:16;100164.19;;;8.40;74.03
41947;BME280;27638;42.184;24.848;2023-01-29T12:42:48;100161.00;;;8.36;73.72
41947;BME280;27638;42.184;24.848;2023-01-29T12:45:21;100167.41;;;8.43;73.89
41947;BME280;27638;42.184;24.848;2023-01-29T12:47:56;100169.19;;;8.43;73.77
41947;BME280;27638;42.184;24.848;2023-01-29T12:50:35;100164.63;;;8.45;73.20
41947;BME280;27638;42.184;24.848;2023-01-29T12:55:45;100170.31;;;8.40;73.36
41947;BME280;27638;42.184;24.848;2023-01-29T12:58:21;100169.19;;;8.33;72.17
41947;BME280;27638;42.184;24.848;2023-01-29T13:00:50;100172.75;;;8.32;73.29
41947;BME280;27638;42.184;24.848;2023-01-29T13:03:21;100170.38;;;8.29;72.49
41947;BME280;27638;42.184;24.848;2023-01-29T13:05:52;100172.03;;;8.30;72.61
41947;BME280;27638;42.184;24.848;2023-01-29T13:08:29;100167.94;;;8.37;73.08
41947;BME280;27638;42.184;24.848;2023-01-29T13:10:57;100165.88;;;8.41;72.69
41947;BME280;27638;42.184;24.848;2023-01-29T13:13:44;100161.97;;;8.45;72.98
41947;BME280;27638;42.184;24.848;2023-01-29T13:16:19;100166.41;;;8.44;72.05
41947;BME280;27638;42.184;24.848;2023-01-29T13:21:20;100166.56;;;8.33;72.71
41947;BME280;27638;42.184;24.848;2023-01-29T13:23:51;100164.19;;;8.40;73.71
41947;BME280;27638;42.184;24.848;2023-01-29T13:26:21;100160.16;;;8.36;72.36
41947;BME280;27638;42.184;24.848;2023-01-29T13:28:48;100166.75;;;8.30;71.95
41947;BME280;27638;42.184;24.848;2023-01-29T13:31:22;100168.09;;;8.36;72.46
41947;BME280;27638;42.184;24.848;2023-01-29T13:36:41;100169.88;;;8.35;72.15
41947;BME280;27638;42.184;24.848;2023-01-29T13:41:45;100165.69;;;8.32;71.79
41947;BME280;27638;42.184;24.848;2023-01-29T13:44:24;100161.56;;;8.49;72.19
41947;BME280;27638;42.184;24.848;2023-01-29T13:46:59;100170.59;;;8.47;71.22
41947;BME280;27638;42.184;24.848;2023-01-29T13:49:38;100156.00;;;8.43;72.18
41947;BME280;27638;42.184;24.848;2023-01-29T13:54:59;100168.66;;;8.58;70.89
41947;BME280;27638;42.184;24.848;2023-01-29T14:00:00;100161.28;;;8.52;69.44
41947;BME280;27638;42.184;24.848;2023-01-29T14:02:28;100175.59;;;8.50;68.75
41947;BME280;27638;42.184;24.848;2023-01-29T14:10:39;100172.13;;;8.49;68.73
41947;BME280;27638;42.184;24.848;2023-01-29T14:15:44;100170.19;;;8.51;68.59
41947;BME280;27638;42.184;24.848;2023-01-29T14:20:58;100175.88;;;8.56;69.03
41947;BME280;27638;42.184;24.848;2023-01-29T14:26:16;100171.16;;;8.60;69.16
41947;BME280;27638;42.184;24.848;2023-01-29T14:28:51;100181.56;;;8.52;68.76
41947;BME280;27638;42.184;24.848;2023-01-29T14:31:40;100185.59;;;8.66;69.33
41947;BME280;27638;42.184;24.848;2023-01-29T14:34:35;100183.78;;;8.76;69.21
41947;BME280;27638;42.184;24.848;2023-01-29T14:40:06;100206.72;;;8.56;71.83
41947;BME280;27638;42.184;24.848;2023-01-29T14:42:44;100198.06;;;8.35;79.75
41947;BME280;27638;42.184;24.848;2023-01-29T14:45:36;100199.41;;;7.28;86.76
41947;BME280;27638;42.184;24.848;2023-01-29T14:58:02;100198.69;;;5.53;100.00
41947;BME280;27638;42.184;24.848;2023-01-29T15:00:36;100200.84;;;5.59;100.00
41947;BME280;27638;42.184;24.848;2023-01-29T15:03:10;100194.25;;;6.09;99.87
41947;BME280;27638;42.184;24.848;2023-01-29T15:05:37;100199.63;;;6.30;96.59
41947;BME280;27638;42.184;24.848;2023-01-29T15:08:37;100207.00;;;6.36;96.41
41947;BME280;27638;42.184;24.848;2023-01-29T15:11:13;100210.41;;;5.94;99.58
41947;BME280;27638;42.184;24.848;2023-01-29T15:14:16;100211.94;;;5.63;100.00
41947;BME280;27638;42.184;24.848;2023-01-29T15:16:59;100211.59;;;5.56;100.00
41947;BME280;27638;42.184;24.848;2023-01-29T15:19:34;100221.84;;;5.37;100.00
41947;BME280;27638;42.184;24.848;2023-01-29T15:22:17;100219.03;;;5.16;100.00
41947;BME280;27638;42.184;24.848;2023-01-29T15:24:44;100210.91;;;5.19;100.00
41947;BME280;27638;42.184;24.848;2023-01-29T15:27:13;100218.06;;;5.17;100.00
41947;BME280;27638;42.184;24.848;2023-01-29T15:29:40;100221.09;;;5.24;100.00
41947;BME280;27638;42.184;24.848;2023-01-29T15:32:22;100219.81;;;5.05;100.00
41947;BME280;27638;42.184;24.848;2023-01-29T15:34:55;100226.00;;;4.93;100.00